createdAt,value
2023-02-05T00:00:27.116Z,0.33
2023-02-05T00:02:53.731Z,1.10
2023-02-05T00:05:20.214Z,0.53
2023-02-05T00:07:46.778Z,0.30
2023-02-05T00:10:13.528Z,0.30
2023-02-05T00:12:40.153Z,0.60
2023-02-05T00:15:07.235Z,0.20
2023-02-05T00:17:36.589Z,0.70
2023-02-05T00:20:05.079Z,0.53
2023-02-05T00:22:32.011Z,0.70
2023-02-05T00:24:58.656Z,0.23
2023-02-05T00:27:25.322Z,0.70
2023-02-05T00:29:51.963Z,0.50
2023-02-05T00:32:18.623Z,0.40
2023-02-05T00:34:45.316Z,0.60
2023-02-05T00:37:11.978Z,1.17
2023-02-05T00:39:38.694Z,0.60
2023-02-05T00:42:05.512Z,0.67
2023-02-05T00:44:32.100Z,0.60
2023-02-05T00:46:58.644Z,0.40
2023-02-05T00:49:25.252Z,0.37
2023-02-05T00:51:51.836Z,0.53
2023-02-05T00:54:18.474Z,0.70
2023-02-05T00:56:45.062Z,0.50
2023-02-05T00:59:11.780Z,1.20
2023-02-05T01:01:38.476Z,0.27
2023-02-05T01:04:05.110Z,0.30
2023-02-05T01:06:31.806Z,0.80
2023-02-05T01:08:58.581Z,1.17
2023-02-05T01:11:25.423Z,0.50
2023-02-05T01:13:53.352Z,0.20
2023-02-05T01:16:20.148Z,0.30
2023-02-05T01:18:46.835Z,0.53
2023-02-05T01:21:13.571Z,0.90
2023-02-05T01:23:40.152Z,0.57
2023-02-05T01:26:06.843Z,0.40
2023-02-05T01:28:33.386Z,1.07
2023-02-05T01:31:00.075Z,0.83
2023-02-05T01:33:26.831Z,0.53
2023-02-05T01:35:53.482Z,0.60
2023-02-05T01:38:20.055Z,0.50
2023-02-05T01:40:46.642Z,0.50
2023-02-05T01:43:17.834Z,0.53
2023-02-05T01:45:53.482Z,0.40
2023-02-05T01:48:25.439Z,0.47
2023-02-05T01:50:55.602Z,0.30
2023-02-05T01:53:26.531Z,0.50
2023-02-05T01:56:00.951Z,0.67
2023-02-05T01:58:31.919Z,0.73
2023-02-05T02:00:58.678Z,0.50
2023-02-05T02:03:28.469Z,0.63
2023-02-05T02:05:56.234Z,0.30
2023-02-05T02:08:22.877Z,0.60
2023-02-05T02:10:52.617Z,0.20
2023-02-05T02:13:21.459Z,0.50
2023-02-05T02:15:50.176Z,0.33
2023-02-05T02:18:28.007Z,0.30
2023-02-05T02:21:25.776Z,0.63
2023-02-05T02:24:29.904Z,0.33
2023-02-05T02:27:17.321Z,0.30
2023-02-05T02:29:59.107Z,0.43
2023-02-05T02:32:35.446Z,0.60
2023-02-05T02:35:15.948Z,0.50
2023-02-05T02:37:58.147Z,0.50
2023-02-05T02:40:34.844Z,0.43
2023-02-05T02:43:14.589Z,0.50
2023-02-05T02:45:52.756Z,0.57
2023-02-05T02:48:23.978Z,0.50
2023-02-05T02:50:54.930Z,0.70
2023-02-05T02:53:26.781Z,0.47
2023-02-05T02:55:57.094Z,0.83
2023-02-05T02:58:28.043Z,0.23
2023-02-05T03:00:55.451Z,0.50
2023-02-05T03:03:25.264Z,0.40
2023-02-05T03:05:56.552Z,0.40
2023-02-05T03:08:29.370Z,0.30
2023-02-05T03:11:01.949Z,0.50
2023-02-05T03:13:29.538Z,0.30
2023-02-05T03:15:56.244Z,0.50
2023-02-05T03:18:24.627Z,0.60
2023-02-05T03:20:52.739Z,0.87
2023-02-05T03:23:19.714Z,1.30
2023-02-05T03:25:46.448Z,0.27
2023-02-05T03:28:14.360Z,0.33
2023-02-05T03:30:53.355Z,0.60
2023-02-05T03:33:31.680Z,0.10
2023-02-05T03:36:26.866Z,0.33
2023-02-05T03:39:11.635Z,0.33
2023-02-05T03:41:57.831Z,0.40
2023-02-05T03:44:39.620Z,0.20
2023-02-05T03:47:25.082Z,0.40
2023-02-05T03:50:09.562Z,0.13
2023-02-05T03:52:41.253Z,0.33
2023-02-05T03:55:14.138Z,0.50
2023-02-05T03:57:51.198Z,0.67
2023-02-05T04:00:17.997Z,0.63
2023-02-05T04:02:45.226Z,0.50
2023-02-05T04:05:12.122Z,0.90
2023-02-05T04:07:38.864Z,0.40
2023-02-05T04:10:05.639Z,0.63
2023-02-05T04:12:32.257Z,0.47
2023-02-05T04:14:58.861Z,0.67
2023-02-05T04:17:25.557Z,0.43
2023-02-05T04:19:52.241Z,0.73
2023-02-05T04:22:18.884Z,0.70
2023-02-05T04:24:45.460Z,0.83
2023-02-05T04:27:12.074Z,0.30
2023-02-05T04:29:38.704Z,0.40
2023-02-05T04:32:05.503Z,0.40
2023-02-05T04:34:32.083Z,0.30
2023-02-05T04:36:58.764Z,0.50
2023-02-05T04:39:25.531Z,0.73
2023-02-05T04:41:52.101Z,0.30
2023-02-05T04:44:18.846Z,0.30
2023-02-05T04:46:45.554Z,0.20
2023-02-05T04:49:12.151Z,0.30
2023-02-05T04:51:39.070Z,0.30
2023-02-05T04:54:05.829Z,0.53
2023-02-05T04:56:32.469Z,0.30
2023-02-05T04:58:59.193Z,0.27
2023-02-05T05:01:25.895Z,0.50
2023-02-05T05:03:52.690Z,0.50
2023-02-05T05:06:19.778Z,0.23
2023-02-05T05:08:46.492Z,0.40
2023-02-05T05:11:16.484Z,0.40
2023-02-05T05:13:43.649Z,0.50
2023-02-05T05:16:12.061Z,0.30
2023-02-05T05:18:39.653Z,0.70
2023-02-05T05:21:06.676Z,0.80
2023-02-05T05:23:34.341Z,0.43
2023-02-05T05:26:07.875Z,0.63
2023-02-05T05:28:35.559Z,0.60
2023-02-05T05:31:11.989Z,0.53
2023-02-05T05:33:38.766Z,0.37
2023-02-05T05:36:06.729Z,0.50
2023-02-05T05:38:33.349Z,0.40
2023-02-05T05:41:18.949Z,0.30
2023-02-05T05:43:48.721Z,0.30
2023-02-05T05:46:24.025Z,0.50
2023-02-05T05:48:52.597Z,0.50
2023-02-05T05:51:20.310Z,0.40
2023-02-05T05:53:47.345Z,0.50
2023-02-05T05:56:14.548Z,0.87
2023-02-05T05:58:42.027Z,0.67
2023-02-05T06:01:09.625Z,0.63
2023-02-05T06:03:36.564Z,0.30
2023-02-05T06:06:06.012Z,0.60
2023-02-05T06:08:33.354Z,0.50
2023-02-05T06:11:00.600Z,0.50
2023-02-05T06:13:28.546Z,0.70
2023-02-05T06:15:55.277Z,0.43
2023-02-05T06:18:23.786Z,0.47
2023-02-05T06:20:50.684Z,0.40
2023-02-05T06:23:17.707Z,0.57
2023-02-05T06:25:44.558Z,0.57
2023-02-05T06:28:11.730Z,0.20
2023-02-05T06:30:38.734Z,0.53
2023-02-05T06:33:05.629Z,0.60
2023-02-05T06:35:32.604Z,0.43
2023-02-05T06:37:59.495Z,0.30
2023-02-05T06:40:28.212Z,1.40
2023-02-05T06:42:55.300Z,0.37
2023-02-05T06:45:22.542Z,0.27
2023-02-05T06:47:50.144Z,0.33
2023-02-05T06:50:16.811Z,0.60
2023-02-05T06:52:43.464Z,0.47
2023-02-05T06:55:10.182Z,0.20
2023-02-05T06:57:37.285Z,0.23
2023-02-05T07:00:05.948Z,0.27
2023-02-05T07:02:32.790Z,0.70
2023-02-05T07:04:59.540Z,0.20
2023-02-05T07:07:26.041Z,0.97
2023-02-05T07:09:52.737Z,0.50
2023-02-05T07:12:19.664Z,0.97
2023-02-05T07:14:46.472Z,0.50
2023-02-05T07:17:13.219Z,0.20
2023-02-05T07:19:39.798Z,0.30
2023-02-05T07:22:06.411Z,0.40
2023-02-05T07:24:33.234Z,0.40
2023-02-05T07:26:59.932Z,0.60
2023-02-05T07:29:28.060Z,0.30
2023-02-05T07:31:54.763Z,0.60
2023-02-05T07:34:21.422Z,0.40
2023-02-05T07:36:51.934Z,0.40
2023-02-05T07:39:19.318Z,0.80
2023-02-05T07:41:45.836Z,0.50
2023-02-05T07:44:12.907Z,0.80
2023-02-05T07:46:39.542Z,0.83
2023-02-05T07:49:06.167Z,1.00
2023-02-05T07:51:33.156Z,0.90
2023-02-05T07:53:59.708Z,0.53
2023-02-05T07:56:26.256Z,0.37
2023-02-05T07:58:52.827Z,0.50
2023-02-05T08:01:19.413Z,0.77
2023-02-05T08:03:46.092Z,0.50
2023-02-05T08:06:15.264Z,0.80
2023-02-05T08:08:42.544Z,0.67
2023-02-05T08:11:14.803Z,0.53
2023-02-05T08:13:41.928Z,0.40
2023-02-05T08:16:08.959Z,0.30
2023-02-05T08:18:35.689Z,0.53
2023-02-05T08:21:02.246Z,0.37
2023-02-05T08:23:28.761Z,0.67
2023-02-05T08:25:56.778Z,0.50
2023-02-05T08:28:25.018Z,0.60
2023-02-05T08:30:52.582Z,0.60
2023-02-05T08:33:19.600Z,0.57
2023-02-05T08:35:46.223Z,0.97
2023-02-05T08:38:12.907Z,0.60
2023-02-05T08:40:39.679Z,1.67
2023-02-05T08:43:08.676Z,0.80
2023-02-05T08:45:36.224Z,0.70
2023-02-05T08:48:03.268Z,0.70
2023-02-05T08:50:30.095Z,0.80
2023-02-05T08:52:57.511Z,0.40
2023-02-05T08:55:24.300Z,0.47
2023-02-05T08:57:51.063Z,0.60
2023-02-05T09:00:18.015Z,0.60
2023-02-05T09:02:44.784Z,0.70
2023-02-05T09:05:11.678Z,1.93
2023-02-05T09:07:42.101Z,1.20
2023-02-05T09:10:11.182Z,0.70
2023-02-05T09:12:37.985Z,0.77
2023-02-05T09:15:06.050Z,0.57
2023-02-05T09:17:32.737Z,0.70
2023-02-05T09:19:59.375Z,1.27
2023-02-05T09:22:26.032Z,0.57
2023-02-05T09:24:52.711Z,0.97
2023-02-05T09:27:19.447Z,0.93
2023-02-05T09:29:46.224Z,0.50
2023-02-05T09:32:12.901Z,1.57
2023-02-05T09:34:39.630Z,0.40
2023-02-05T09:37:06.388Z,0.60
2023-02-05T09:42:32.906Z,1.03
2023-02-05T09:45:52.082Z,1.10
2023-02-05T09:48:41.390Z,0.67
2023-02-05T09:51:11.481Z,0.67
2023-02-05T09:53:43.644Z,2.40
2023-02-05T09:56:13.852Z,6.13
2023-02-05T09:58:44.201Z,5.97
2023-02-05T10:01:34.355Z,6.07
2023-02-05T10:04:03.471Z,5.30
2023-02-05T10:06:48.644Z,5.40
2023-02-05T10:09:17.964Z,4.43
2023-02-05T10:12:27.155Z,4.77
2023-02-05T10:15:01.578Z,3.63
2023-02-05T10:17:48.488Z,3.00
2023-02-05T10:20:44.072Z,2.73
2023-02-05T10:23:13.210Z,3.47
2023-02-05T10:25:50.379Z,3.03
2023-02-05T10:28:35.622Z,3.70
2023-02-05T10:31:37.508Z,3.17
2023-02-05T10:34:23.635Z,4.63
2023-02-05T10:36:53.509Z,3.90
2023-02-05T10:39:24.954Z,5.60
2023-02-05T10:42:03.884Z,3.43
2023-02-05T10:44:40.472Z,3.43
2023-02-05T10:47:35.766Z,3.67
2023-02-05T10:50:18.468Z,5.53
2023-02-05T10:52:45.526Z,4.67
2023-02-05T10:55:13.648Z,6.10
2023-02-05T10:57:40.460Z,4.70
2023-02-05T11:00:19.957Z,3.17
2023-02-05T11:02:51.853Z,3.30
2023-02-05T11:05:39.226Z,3.57
2023-02-05T11:08:25.916Z,2.37
2023-02-05T11:10:53.648Z,3.47
2023-02-05T11:13:22.371Z,4.03
2023-02-05T11:16:02.625Z,3.93
2023-02-05T11:18:43.760Z,3.77
2023-02-05T11:21:11.334Z,4.60
2023-02-05T11:23:43.195Z,4.27
2023-02-05T11:26:22.397Z,3.83
2023-02-05T11:28:49.443Z,4.27
2023-02-05T11:31:24.006Z,3.30
2023-02-05T11:33:51.223Z,4.97
2023-02-05T11:36:22.623Z,4.30
2023-02-05T11:38:52.988Z,4.03
2023-02-05T11:41:52.031Z,3.97
2023-02-05T11:44:24.509Z,3.70
2023-02-05T11:46:57.098Z,5.23
2023-02-05T11:49:32.758Z,3.43
2023-02-05T11:52:00.292Z,3.77
2023-02-05T11:54:31.617Z,4.10
2023-02-05T11:57:05.132Z,3.77
2023-02-05T11:59:32.653Z,4.30
2023-02-05T12:02:28.782Z,2.93
2023-02-05T12:05:07.409Z,2.27
2023-02-05T12:08:01.811Z,3.27
2023-02-05T12:10:33.517Z,2.83
2023-02-05T12:13:26.167Z,2.03
2023-02-05T12:16:21.074Z,2.37
2023-02-05T12:19:00.018Z,4.33
2023-02-05T12:21:37.075Z,4.63
2023-02-05T12:24:03.653Z,5.73
2023-02-05T12:26:35.423Z,6.03
2023-02-05T12:29:16.672Z,5.30
2023-02-05T12:31:46.454Z,3.83
2023-02-05T12:34:43.551Z,3.87
2023-02-05T12:37:19.599Z,4.20
2023-02-05T12:39:48.447Z,4.67
2023-02-05T12:42:50.500Z,5.47
2023-02-05T12:45:29.363Z,3.73
2023-02-05T12:48:04.664Z,3.30
2023-02-05T12:50:47.682Z,4.47
2023-02-05T12:53:27.343Z,4.60
2023-02-05T12:56:21.143Z,3.23
2023-02-05T12:58:57.892Z,3.50
2023-02-05T13:01:50.124Z,4.33
2023-02-05T13:04:30.015Z,3.67
2023-02-05T13:07:11.948Z,3.93
2023-02-05T13:09:48.112Z,4.10
2023-02-05T13:12:20.229Z,3.73
2023-02-05T13:15:08.704Z,4.53
2023-02-05T13:17:41.814Z,3.40
2023-02-05T13:20:22.914Z,4.90
2023-02-05T13:23:16.711Z,4.40
2023-02-05T13:26:08.174Z,5.47
2023-02-05T13:28:59.986Z,4.37
2023-02-05T13:31:40.712Z,4.87
2023-02-05T13:34:09.299Z,4.50
2023-02-05T13:36:57.265Z,5.30
2023-02-05T13:39:34.749Z,4.97
2023-02-05T13:42:38.665Z,5.23
2023-02-05T13:45:22.158Z,4.47
2023-02-05T13:48:02.196Z,5.43
2023-02-05T13:50:43.902Z,4.80
2023-02-05T13:53:36.656Z,4.70
2023-02-05T13:56:35.891Z,5.30
2023-02-05T13:59:05.715Z,5.50
2023-02-05T14:01:58.085Z,4.90
2023-02-05T14:04:39.660Z,5.30
2023-02-05T14:07:13.130Z,6.10
2023-02-05T14:09:52.939Z,4.60
2023-02-05T14:12:25.729Z,6.40
2023-02-05T14:15:11.094Z,5.40
2023-02-05T14:17:37.653Z,5.70
2023-02-05T14:20:06.275Z,5.97
2023-02-05T14:22:42.412Z,5.67
2023-02-05T14:25:42.800Z,5.93
2023-02-05T14:28:15.688Z,6.03
2023-02-05T14:30:50.328Z,6.17
2023-02-05T14:33:40.826Z,5.80
2023-02-05T14:36:23.075Z,6.90
2023-02-05T14:38:55.852Z,6.57
2023-02-05T14:41:24.490Z,7.33
2023-02-05T14:43:58.498Z,6.73
2023-02-05T14:47:11.789Z,6.40
2023-02-05T14:49:45.449Z,6.37
2023-02-05T14:52:21.469Z,7.00
2023-02-05T14:54:59.702Z,8.67
2023-02-05T14:57:52.020Z,6.93
2023-02-05T15:00:26.993Z,7.13
2023-02-05T15:02:56.613Z,7.30
2023-02-05T15:05:42.306Z,7.00
2023-02-05T15:08:19.106Z,7.67
2023-02-05T15:10:55.100Z,8.77
2023-02-05T15:13:22.623Z,8.60
2023-02-05T15:16:07.568Z,7.17
2023-02-05T15:18:41.574Z,9.07
2023-02-05T15:21:16.586Z,8.10
2023-02-05T15:23:51.759Z,6.17
2023-02-05T15:26:24.542Z,7.13
2023-02-05T15:29:03.738Z,7.00
2023-02-05T15:31:41.965Z,6.93
2023-02-05T15:34:26.926Z,8.03
2023-02-05T15:36:59.354Z,6.67
2023-02-05T15:39:35.509Z,7.13
2023-02-05T15:42:05.707Z,5.87
2023-02-05T15:44:35.371Z,8.60
2023-02-05T15:47:13.903Z,7.60
2023-02-05T15:49:49.076Z,7.30
2023-02-05T15:52:27.984Z,7.83
2023-02-05T15:54:58.720Z,8.93
2023-02-05T15:57:29.380Z,7.70
2023-02-05T15:59:57.745Z,8.37
2023-02-05T16:02:29.243Z,10.30
2023-02-05T16:05:02.008Z,9.27
2023-02-05T16:07:41.314Z,8.40
2023-02-05T16:10:21.263Z,9.77
2023-02-05T16:13:02.199Z,9.07
2023-02-05T16:15:35.495Z,8.13
2023-02-05T16:18:05.083Z,8.93
2023-02-05T16:20:40.477Z,9.33
2023-02-05T16:23:26.098Z,7.47
2023-02-05T16:25:56.373Z,8.27
2023-02-05T16:28:37.337Z,8.93
2023-02-05T16:31:05.818Z,8.03
2023-02-05T16:33:36.076Z,9.80
2023-02-05T16:36:06.414Z,11.30
2023-02-05T16:38:35.554Z,8.40
2023-02-05T16:41:19.861Z,9.90
2023-02-05T16:43:46.741Z,9.83
2023-02-05T16:46:14.760Z,9.67
2023-02-05T16:48:47.508Z,9.13
2023-02-05T16:51:35.708Z,8.97
2023-02-05T16:54:24.219Z,8.80
2023-02-05T16:57:05.285Z,9.80
2023-02-05T16:59:51.789Z,7.80
2023-02-05T17:02:29.241Z,8.40
2023-02-05T17:04:57.868Z,9.30
2023-02-05T17:07:24.881Z,8.87
2023-02-05T17:09:51.988Z,7.63
2023-02-05T17:12:33.727Z,7.00
2023-02-05T17:15:24.497Z,6.63
2023-02-05T17:18:04.613Z,7.47
2023-02-05T17:20:33.289Z,8.23
2023-02-05T17:23:00.221Z,7.70
2023-02-05T17:25:40.163Z,7.38
2023-02-05T17:28:13.061Z,7.87
2023-02-05T17:30:42.649Z,9.03
2023-02-05T17:33:10.063Z,10.13
2023-02-05T17:35:36.784Z,9.57
2023-02-05T17:38:03.734Z,11.03
2023-02-05T17:40:30.438Z,12.57
2023-02-05T17:42:57.293Z,13.07
2023-02-05T17:45:26.260Z,11.37
2023-02-05T17:47:53.417Z,10.23
2023-02-05T17:50:20.952Z,10.93
2023-02-05T17:52:47.582Z,9.63
2023-02-05T17:55:17.011Z,10.27
2023-02-05T17:57:44.104Z,8.93
2023-02-05T18:00:26.207Z,10.33
2023-02-05T18:02:53.190Z,8.47
2023-02-05T18:05:20.525Z,8.10
2023-02-05T18:07:56.876Z,8.57
2023-02-05T18:10:29.067Z,8.10
2023-02-05T18:12:56.162Z,8.70
2023-02-05T18:15:23.611Z,8.37
2023-02-05T18:17:50.251Z,9.63
2023-02-05T18:20:22.214Z,11.70
2023-02-05T18:22:49.375Z,10.17
2023-02-05T18:25:16.573Z,9.73
2023-02-05T18:27:43.324Z,10.57
2023-02-05T18:30:10.905Z,7.17
2023-02-05T18:32:37.644Z,9.20
2023-02-05T18:35:04.415Z,10.10
2023-02-05T18:37:31.081Z,8.00
2023-02-05T18:39:57.756Z,7.17
2023-02-05T18:42:24.372Z,10.27
2023-02-05T18:44:51.089Z,8.27
2023-02-05T18:47:18.428Z,8.83
2023-02-05T18:49:45.096Z,7.67
2023-02-05T18:52:14.095Z,9.40
2023-02-05T18:54:40.989Z,8.43
2023-02-05T18:57:07.811Z,7.77
2023-02-05T18:59:34.660Z,9.00
2023-02-05T19:02:01.523Z,7.53
2023-02-05T19:04:33.045Z,8.47
2023-02-05T19:06:59.815Z,8.33
2023-02-05T19:09:28.156Z,8.10
2023-02-05T19:11:56.092Z,7.83
2023-02-05T19:14:24.313Z,7.47
2023-02-05T19:16:52.504Z,8.00
2023-02-05T19:19:23.994Z,8.67
2023-02-05T19:21:55.504Z,8.50
2023-02-05T19:24:22.943Z,9.33
2023-02-05T19:26:50.961Z,7.90
2023-02-05T19:29:19.517Z,9.10
2023-02-05T19:31:46.889Z,7.63
2023-02-05T19:34:14.132Z,7.10
2023-02-05T19:36:40.808Z,7.43
2023-02-05T19:39:09.417Z,7.47
2023-02-05T19:41:37.038Z,6.73
2023-02-05T19:44:07.565Z,8.03
2023-02-05T19:46:38.015Z,8.17
2023-02-05T19:49:08.981Z,7.70
2023-02-05T19:51:37.028Z,7.43
2023-02-05T19:54:04.565Z,6.93
2023-02-05T19:56:32.498Z,6.93
2023-02-05T19:58:59.051Z,9.37
2023-02-05T20:01:30.937Z,8.73
2023-02-05T20:04:01.036Z,8.83
2023-02-05T20:06:29.514Z,8.70
2023-02-05T20:08:56.550Z,7.53
2023-02-05T20:11:23.437Z,7.83
2023-02-05T20:13:50.401Z,7.60
2023-02-05T20:16:22.451Z,7.57
2023-02-05T20:18:57.807Z,6.23
2023-02-05T20:21:25.380Z,6.73
2023-02-05T20:23:52.692Z,8.80
2023-02-05T20:26:22.071Z,8.10
2023-02-05T20:29:15.364Z,8.40
2023-02-05T20:31:45.669Z,9.73
2023-02-05T20:34:26.211Z,7.30
2023-02-05T20:37:01.391Z,6.37
2023-02-05T20:39:29.439Z,7.77
2023-02-05T20:41:58.561Z,6.47
2023-02-05T20:44:27.439Z,6.13
2023-02-05T20:46:55.155Z,7.80
2023-02-05T20:49:22.297Z,7.43
2023-02-05T20:51:49.025Z,7.57
2023-02-05T20:54:15.719Z,7.63
2023-02-05T20:56:42.424Z,5.57
2023-02-05T20:59:10.880Z,7.77
2023-02-05T21:01:39.261Z,7.60
2023-02-05T21:04:07.521Z,7.17
2023-02-05T21:06:39.277Z,7.23
2023-02-05T21:09:07.608Z,7.97
2023-02-05T21:11:34.344Z,6.33
2023-02-05T21:14:01.136Z,7.97
2023-02-05T21:16:28.333Z,7.97
2023-02-05T21:18:55.450Z,8.20
2023-02-05T21:21:31.275Z,7.20
2023-02-05T21:24:01.466Z,7.13
2023-02-05T21:26:37.145Z,6.43
2023-02-05T21:29:07.682Z,6.90
2023-02-05T21:31:41.874Z,7.20
2023-02-05T21:34:10.692Z,8.57
2023-02-05T21:36:37.788Z,8.10
2023-02-05T21:39:04.561Z,9.00
2023-02-05T21:41:31.216Z,8.87
2023-02-05T21:43:59.671Z,6.47
2023-02-05T21:46:29.467Z,8.03
2023-02-05T21:48:58.480Z,7.63
2023-02-05T21:51:28.562Z,7.70
2023-02-05T21:53:59.001Z,7.80
2023-02-05T21:56:28.745Z,9.07
2023-02-05T21:58:55.821Z,7.97
2023-02-05T22:01:28.014Z,8.83
2023-02-05T22:03:58.040Z,6.37
2023-02-05T22:06:27.607Z,10.90
2023-02-05T22:08:56.637Z,7.63
2023-02-05T22:11:23.851Z,7.83
2023-02-05T22:13:52.753Z,7.93
2023-02-05T22:16:23.117Z,8.57
2023-02-05T22:18:50.481Z,7.07
2023-02-05T22:21:22.190Z,7.47
2023-02-05T22:23:52.263Z,6.90
2023-02-05T22:26:21.372Z,7.23
2023-02-05T22:28:48.803Z,8.33
2023-02-05T22:31:18.374Z,9.70
2023-02-05T22:33:46.813Z,8.77
2023-02-05T22:36:15.472Z,9.50
2023-02-05T22:38:43.026Z,8.20
2023-02-05T22:41:11.787Z,7.47
2023-02-05T22:43:39.267Z,8.23
2023-02-05T22:46:07.690Z,7.73
2023-02-05T22:48:36.613Z,8.73
2023-02-05T22:51:05.462Z,8.67
2023-02-05T22:53:33.013Z,7.87
2023-02-05T22:56:04.896Z,8.10
2023-02-05T22:58:32.598Z,8.47
2023-02-05T23:00:59.362Z,8.93
2023-02-05T23:03:26.033Z,7.80
2023-02-05T23:05:53.009Z,7.37
2023-02-05T23:08:19.967Z,7.10
2023-02-05T23:10:46.583Z,8.20
2023-02-05T23:13:13.553Z,7.20
2023-02-05T23:15:40.139Z,7.10
2023-02-05T23:18:06.986Z,7.80
2023-02-05T23:20:33.722Z,8.40
2023-02-05T23:23:00.391Z,8.07
2023-02-05T23:25:26.996Z,8.30
2023-02-05T23:27:53.735Z,8.00
2023-02-05T23:30:20.642Z,8.37
2023-02-05T23:32:47.245Z,7.63
2023-02-05T23:35:13.916Z,8.07
2023-02-05T23:37:40.514Z,5.43
2023-02-05T23:40:07.651Z,8.00
2023-02-05T23:42:34.240Z,8.37
2023-02-05T23:45:00.702Z,6.97
2023-02-05T23:47:27.280Z,7.20
2023-02-05T23:49:53.978Z,8.17
2023-02-05T23:52:20.830Z,8.23
2023-02-05T23:54:47.403Z,7.23
2023-02-05T23:57:14.102Z,6.50
2023-02-05T23:59:40.742Z,6.57
